Terminal Aerodrome Forecast
Issued by NWS Springfield, MO

Home | Current Version | Previous Version | Text Only | Print | Product List | Glossary On
Versions: 1 2 3 4 5 6 7 8 9 10 11 12 13 14 15 16 17 18 19 20 21 22 23 24 25 26 27
000
FTUS43 KSGF 181745
TAFSGF
TAF
KSGF 181745Z 1818/1918 32027G39KT P6SM SCT015 OVC025
      TEMPO 1818/1821 3SM -SHRA SCT007 OVC015
     FM182100 32022G32KT P6SM BKN030 OVC050
     FM182300 32015G23KT P6SM SCT050
     FM190300 31007KT P6SM SKC=

USA.gov is the U.S. government's official web portal to all federal, state and local government web resources and services.